createdAt,value
2023-11-25T00:00:58.382Z,51.25
2023-11-25T00:03:25.087Z,51.34
2023-11-25T00:05:51.761Z,51.17
2023-11-25T00:08:18.427Z,51.58
2023-11-25T00:10:45.272Z,51.35
2023-11-25T00:13:12.311Z,51.28
2023-11-25T00:15:39.071Z,51.15
2023-11-25T00:18:05.785Z,51.39
2023-11-25T00:20:32.493Z,51.31
2023-11-25T00:22:59.192Z,51.71
2023-11-25T00:25:25.990Z,51.44
2023-11-25T00:27:52.989Z,51.47
2023-11-25T00:30:19.690Z,51.50
2023-11-25T00:32:46.428Z,51.45
2023-11-25T00:35:13.213Z,51.49
2023-11-25T00:37:39.913Z,51.39
2023-11-25T00:40:06.619Z,51.51
2023-11-25T00:42:33.271Z,51.37
2023-11-25T00:45:00.136Z,51.50
2023-11-25T00:47:26.861Z,51.56
2023-11-25T00:49:53.552Z,51.44
2023-11-25T00:52:20.216Z,51.39
2023-11-25T00:54:46.866Z,51.51
2023-11-25T00:57:13.527Z,51.42
2023-11-25T00:59:40.198Z,51.44
2023-11-25T01:02:07.154Z,51.39
2023-11-25T01:04:33.894Z,51.32
2023-11-25T01:07:00.570Z,51.44
2023-11-25T01:09:27.212Z,51.43
2023-11-25T01:11:53.880Z,51.35
2023-11-25T01:14:20.594Z,51.53
2023-11-25T01:16:47.310Z,51.37
2023-11-25T01:19:14.107Z,51.23
2023-11-25T01:21:41.005Z,51.44
2023-11-25T01:24:07.749Z,51.40
2023-11-25T01:26:34.428Z,51.35
2023-11-25T01:29:01.337Z,51.40
2023-11-25T01:31:28.059Z,51.13
2023-11-25T01:33:54.758Z,51.07
2023-11-25T01:36:21.451Z,51.14
2023-11-25T01:38:48.097Z,51.30
2023-11-25T01:41:14.778Z,51.41
2023-11-25T01:43:41.456Z,51.33
2023-11-25T01:46:08.250Z,51.45
2023-11-25T01:48:35.063Z,51.37
2023-11-25T01:51:01.922Z,51.33
2023-11-25T01:53:28.558Z,51.41
2023-11-25T01:55:55.207Z,51.38
2023-11-25T01:58:21.899Z,51.48
2023-11-25T02:00:48.578Z,51.30
2023-11-25T02:03:15.398Z,51.23
2023-11-25T02:05:42.119Z,51.27
2023-11-25T02:08:08.997Z,51.44
2023-11-25T02:10:35.670Z,51.38
2023-11-25T02:13:02.584Z,51.35
2023-11-25T02:15:29.284Z,51.42
2023-11-25T02:17:55.996Z,51.31
2023-11-25T02:20:22.702Z,51.23
2023-11-25T02:22:49.367Z,51.12
2023-11-25T02:25:34.975Z,51.11
2023-11-25T02:28:20.818Z,51.08
2023-11-25T02:31:06.018Z,51.33
2023-11-25T02:33:51.512Z,51.28
2023-11-25T02:36:36.810Z,51.21
2023-11-25T02:39:22.385Z,51.13
2023-11-25T02:42:07.879Z,51.21
2023-11-25T02:44:56.093Z,51.17
2023-11-25T02:47:41.929Z,50.86
2023-11-25T02:50:27.500Z,51.11
2023-11-25T02:53:13.081Z,51.18
2023-11-25T02:55:58.391Z,51.08
2023-11-25T02:58:43.935Z,50.86
2023-11-25T03:01:29.472Z,50.88
2023-11-25T03:04:14.889Z,51.02
2023-11-25T03:07:00.602Z,50.87
2023-11-25T03:09:45.941Z,50.91
2023-11-25T03:12:31.335Z,50.95
2023-11-25T03:15:16.602Z,51.01
2023-11-25T03:18:02.036Z,50.63
2023-11-25T03:20:47.511Z,50.95
2023-11-25T03:23:32.782Z,50.97
2023-11-25T03:26:18.127Z,51.06
2023-11-25T03:29:03.411Z,51.28
2023-11-25T03:31:49.120Z,50.89
2023-11-25T03:34:34.393Z,51.02
2023-11-25T03:37:19.615Z,51.17
2023-11-25T03:40:05.178Z,51.16
2023-11-25T03:42:50.359Z,50.91
2023-11-25T03:45:17.049Z,51.22
2023-11-25T03:47:43.719Z,50.87
2023-11-25T03:50:10.575Z,51.01
2023-11-25T03:52:37.338Z,50.98
2023-11-25T03:55:04.227Z,51.14
2023-11-25T03:57:30.894Z,51.03
2023-11-25T03:59:57.567Z,51.31
2023-11-25T04:02:24.327Z,51.08
2023-11-25T04:04:51.101Z,51.19
2023-11-25T04:07:17.849Z,51.03
2023-11-25T04:09:44.779Z,50.98
2023-11-25T04:12:11.446Z,50.99
2023-11-25T04:14:38.102Z,50.95
2023-11-25T04:17:04.853Z,51.18
2023-11-25T04:19:31.608Z,51.05
2023-11-25T04:21:58.294Z,50.85
2023-11-25T04:24:24.933Z,51.02
2023-11-25T04:26:51.850Z,50.90
2023-11-25T04:29:18.499Z,51.03
2023-11-25T04:31:45.197Z,51.04
2023-11-25T04:34:11.896Z,51.06
2023-11-25T04:36:38.561Z,50.85
2023-11-25T04:39:05.202Z,50.75
2023-11-25T04:41:31.869Z,50.92
2023-11-25T04:43:58.781Z,50.99
2023-11-25T04:46:25.540Z,51.04
2023-11-25T04:48:52.226Z,51.13
2023-11-25T04:51:18.882Z,51.31
2023-11-25T04:53:45.530Z,51.06
2023-11-25T04:56:14.284Z,51.09
2023-11-25T04:58:42.348Z,51.07
2023-11-25T05:01:09.062Z,51.21
2023-11-25T05:03:35.834Z,51.32
2023-11-25T05:06:02.503Z,51.18
2023-11-25T05:08:29.368Z,51.38
2023-11-25T05:10:56.253Z,51.26
2023-11-25T05:13:22.978Z,51.18
2023-11-25T05:15:49.867Z,51.24
2023-11-25T05:18:16.544Z,51.29
2023-11-25T05:20:43.220Z,51.15
2023-11-25T05:23:10.087Z,51.16
2023-11-25T05:25:36.782Z,51.26
2023-11-25T05:28:03.547Z,51.07
2023-11-25T05:30:30.218Z,51.20
2023-11-25T05:32:57.120Z,51.20
2023-11-25T05:35:24.006Z,51.12
2023-11-25T05:37:50.980Z,51.12
2023-11-25T05:40:17.752Z,51.10
2023-11-25T05:42:44.632Z,50.95
2023-11-25T05:45:11.268Z,50.99
2023-11-25T05:47:38.360Z,50.99
2023-11-25T05:50:05.028Z,50.91
2023-11-25T05:52:31.691Z,51.00
2023-11-25T05:54:58.368Z,50.80
2023-11-25T05:57:25.235Z,50.95
2023-11-25T05:59:51.916Z,51.04
2023-11-25T06:02:18.579Z,51.08
2023-11-25T06:04:45.339Z,51.00
2023-11-25T06:07:12.071Z,51.18
2023-11-25T06:09:38.777Z,51.11
2023-11-25T06:12:05.645Z,51.04
2023-11-25T06:14:32.285Z,51.26
2023-11-25T06:16:59.222Z,51.20
2023-11-25T06:19:25.974Z,51.25
2023-11-25T06:21:52.651Z,51.19
2023-11-25T06:24:19.310Z,51.14
2023-11-25T06:26:46.194Z,51.29
2023-11-25T06:29:12.849Z,51.15
2023-11-25T06:31:39.772Z,51.08
2023-11-25T06:34:06.470Z,51.00
2023-11-25T06:36:33.414Z,51.22
2023-11-25T06:39:00.105Z,50.92
2023-11-25T06:41:26.833Z,50.97
2023-11-25T06:43:53.541Z,51.05
2023-11-25T06:46:20.272Z,51.11
2023-11-25T06:48:47.151Z,50.94
2023-11-25T06:51:13.806Z,51.06
2023-11-25T06:53:40.482Z,51.03
2023-11-25T06:56:07.138Z,50.97
2023-11-25T06:58:33.846Z,51.15
2023-11-25T07:01:00.624Z,51.13
2023-11-25T07:03:28.443Z,51.02
2023-11-25T07:05:55.127Z,51.37
2023-11-25T07:08:22.012Z,51.12
2023-11-25T07:10:48.758Z,51.11
2023-11-25T07:13:15.454Z,51.14
2023-11-25T07:15:42.120Z,51.10
2023-11-25T07:18:09.005Z,51.02
2023-11-25T07:20:35.687Z,51.16
2023-11-25T07:23:02.387Z,51.15
2023-11-25T07:25:29.079Z,51.08
2023-11-25T07:27:55.751Z,51.26
2023-11-25T07:30:22.421Z,51.20
2023-11-25T07:32:49.116Z,51.08
2023-11-25T07:35:15.829Z,51.11
2023-11-25T07:37:43.562Z,51.07
2023-11-25T07:40:10.475Z,51.04
2023-11-25T07:42:37.146Z,51.15
2023-11-25T07:45:03.804Z,51.05
2023-11-25T07:47:31.016Z,50.91
2023-11-25T07:49:57.719Z,50.85
2023-11-25T07:52:24.401Z,50.91
2023-11-25T07:54:51.068Z,50.87
2023-11-25T07:57:17.718Z,50.99
2023-11-25T08:02:31.817Z,50.95
2023-11-25T08:04:58.771Z,51.00
2023-11-25T08:07:25.450Z,51.08
2023-11-25T08:09:52.326Z,50.82
2023-11-25T08:12:18.975Z,51.01
2023-11-25T08:14:45.658Z,50.96
2023-11-25T08:17:12.403Z,50.81
2023-11-25T08:19:39.140Z,51.01
2023-11-25T08:22:05.809Z,51.06
2023-11-25T08:24:32.456Z,50.93
2023-11-25T08:26:59.109Z,50.80
2023-11-25T08:29:25.766Z,50.99
2023-11-25T08:31:52.517Z,50.74
2023-11-25T08:34:19.245Z,50.80
2023-11-25T08:36:46.338Z,50.77
2023-11-25T08:39:13.088Z,50.72
2023-11-25T08:41:39.740Z,50.59
2023-11-25T08:44:06.394Z,50.84
2023-11-25T08:46:33.059Z,50.85
2023-11-25T08:48:59.714Z,50.76
2023-11-25T08:51:26.387Z,50.94
2023-11-25T08:53:53.034Z,50.79
2023-11-25T08:56:19.678Z,50.97
2023-11-25T08:58:46.365Z,50.89
2023-11-25T09:01:13.038Z,50.90
2023-11-25T09:03:39.963Z,51.03
2023-11-25T09:06:06.702Z,50.70
2023-11-25T09:08:33.358Z,50.95
2023-11-25T09:11:00.085Z,50.77
2023-11-25T09:13:26.769Z,50.77
2023-11-25T09:15:53.527Z,50.72
2023-11-25T09:18:20.242Z,50.68
2023-11-25T09:20:46.922Z,50.69
2023-11-25T09:23:13.566Z,50.81
2023-11-25T09:25:40.211Z,51.07
2023-11-25T09:28:06.871Z,50.77
2023-11-25T09:30:34.013Z,50.88
2023-11-25T09:33:00.748Z,50.46
2023-11-25T09:35:27.430Z,50.67
2023-11-25T09:37:54.122Z,50.69
2023-11-25T09:40:21.152Z,50.61
2023-11-25T09:42:48.623Z,50.35
2023-11-25T09:45:15.708Z,50.70
2023-11-25T09:47:42.393Z,50.57
2023-11-25T09:50:09.047Z,50.78
2023-11-25T09:52:35.735Z,50.53
2023-11-25T09:55:02.430Z,50.51
2023-11-25T09:57:29.087Z,50.47
2023-11-25T09:59:55.730Z,50.60
2023-11-25T10:02:22.508Z,50.54
2023-11-25T10:04:49.306Z,50.60
2023-11-25T10:07:15.960Z,50.65
2023-11-25T10:09:42.624Z,50.60
2023-11-25T10:12:09.298Z,50.41
2023-11-25T10:14:36.054Z,50.65
2023-11-25T10:17:04.084Z,50.36
2023-11-25T10:19:30.781Z,50.64
2023-11-25T10:21:57.487Z,50.49
2023-11-25T10:24:24.159Z,50.71
2023-11-25T10:26:51.569Z,50.55
2023-11-25T10:29:18.221Z,50.61
2023-11-25T10:31:44.916Z,50.47
2023-11-25T10:34:11.697Z,50.62
2023-11-25T10:36:38.491Z,50.65
2023-11-25T10:39:05.140Z,50.41
2023-11-25T10:41:31.785Z,50.72
2023-11-25T10:43:58.691Z,51.03
2023-11-25T10:46:25.424Z,51.40
2023-11-25T10:48:52.158Z,51.55
2023-11-25T10:51:18.820Z,51.27
2023-11-25T10:53:45.506Z,51.93
2023-11-25T10:56:12.255Z,51.95
2023-11-25T10:58:38.997Z,50.87
2023-11-25T11:01:05.685Z,51.48
2023-11-25T11:03:32.363Z,51.81
2023-11-25T11:05:59.023Z,52.11
2023-11-25T11:08:25.687Z,51.69
2023-11-25T11:10:52.616Z,52.49
2023-11-25T11:13:19.298Z,52.58
2023-11-25T11:15:45.963Z,52.37
2023-11-25T11:18:12.680Z,52.15
2023-11-25T11:20:41.022Z,52.15
2023-11-25T11:23:08.882Z,51.72
2023-11-25T11:25:35.580Z,52.05
2023-11-25T11:28:02.270Z,51.71
2023-11-25T11:30:28.922Z,52.21
2023-11-25T11:32:55.607Z,52.82
2023-11-25T11:35:22.349Z,52.68
2023-11-25T11:37:49.082Z,52.71
2023-11-25T11:40:15.795Z,52.94
2023-11-25T11:42:42.475Z,51.99
2023-11-25T11:45:09.133Z,52.90
2023-11-25T11:47:36.085Z,52.95
2023-11-25T11:50:02.758Z,52.89
2023-11-25T11:52:29.447Z,53.02
2023-11-25T11:54:56.131Z,53.20
2023-11-25T11:57:22.786Z,53.94
2023-11-25T11:59:49.452Z,54.37
2023-11-25T12:02:16.221Z,54.35
2023-11-25T12:04:43.031Z,54.52
2023-11-25T12:07:09.783Z,54.46
2023-11-25T12:09:36.803Z,55.29
2023-11-25T12:12:03.467Z,55.36
2023-11-25T12:14:30.375Z,55.09
2023-11-25T12:16:57.113Z,55.26
2023-11-25T12:19:23.873Z,55.09
2023-11-25T12:21:50.551Z,55.11
2023-11-25T12:24:17.203Z,55.18
2023-11-25T12:26:43.854Z,55.21
2023-11-25T12:29:10.502Z,55.71
2023-11-25T12:31:37.193Z,55.07
2023-11-25T12:34:03.885Z,55.27
2023-11-25T12:36:30.756Z,55.16
2023-11-25T12:38:57.410Z,55.29
2023-11-25T12:41:24.076Z,56.08
2023-11-25T12:43:50.799Z,55.59
2023-11-25T12:46:17.487Z,55.60
2023-11-25T12:48:44.450Z,55.43
2023-11-25T12:51:11.110Z,55.71
2023-11-25T12:53:37.790Z,55.94
2023-11-25T12:56:04.758Z,56.17
2023-11-25T12:58:31.489Z,56.10
2023-11-25T13:00:58.159Z,55.63
2023-11-25T13:03:24.998Z,55.24
2023-11-25T13:05:51.814Z,55.28
2023-11-25T13:08:18.484Z,54.76
2023-11-25T13:10:45.184Z,54.39
2023-11-25T13:13:11.856Z,54.15
2023-11-25T13:15:38.505Z,54.10
2023-11-25T13:18:05.417Z,53.90
2023-11-25T13:20:32.107Z,53.90
2023-11-25T13:22:58.807Z,53.68
2023-11-25T13:25:25.500Z,52.89
2023-11-25T13:27:52.173Z,52.79
2023-11-25T13:30:18.854Z,52.84
2023-11-25T13:32:45.600Z,53.27
2023-11-25T13:35:12.550Z,53.29
2023-11-25T13:37:39.210Z,52.97
2023-11-25T13:40:05.891Z,52.86
2023-11-25T13:42:32.554Z,52.74
2023-11-25T13:45:00.588Z,52.49
2023-11-25T13:47:28.489Z,52.54
2023-11-25T13:49:55.237Z,52.51
2023-11-25T13:52:22.028Z,52.79
2023-11-25T13:54:48.899Z,51.61
2023-11-25T13:57:15.544Z,51.70
2023-11-25T13:59:42.263Z,51.54
2023-11-25T14:02:09.180Z,51.43
2023-11-25T14:04:35.973Z,51.37
2023-11-25T14:07:02.629Z,51.31
2023-11-25T14:09:29.283Z,51.69
2023-11-25T14:11:55.934Z,52.34
2023-11-25T14:14:22.612Z,52.55
2023-11-25T14:16:49.739Z,51.91
2023-11-25T14:19:16.478Z,52.30
2023-11-25T14:21:43.128Z,52.32
2023-11-25T14:24:09.787Z,52.18
2023-11-25T14:26:36.437Z,52.03
2023-11-25T14:29:03.350Z,51.79
2023-11-25T14:31:30.113Z,51.78
2023-11-25T14:33:56.820Z,51.76
2023-11-25T14:36:23.510Z,51.56
2023-11-25T14:38:50.187Z,51.67
2023-11-25T14:41:16.934Z,51.41
2023-11-25T14:43:43.709Z,51.26
2023-11-25T14:46:10.646Z,51.24
2023-11-25T14:48:37.315Z,51.01
2023-11-25T14:51:03.974Z,51.06
2023-11-25T14:53:30.630Z,50.96
2023-11-25T14:55:57.314Z,50.83
2023-11-25T14:58:23.989Z,50.81
2023-11-25T15:00:50.637Z,50.73
2023-11-25T15:03:17.647Z,50.83
2023-11-25T15:05:44.362Z,50.65
2023-11-25T15:08:11.093Z,50.50
2023-11-25T15:10:37.782Z,50.52
2023-11-25T15:13:04.460Z,50.56
2023-11-25T15:15:31.102Z,50.53
2023-11-25T15:17:57.830Z,50.38
2023-11-25T15:20:24.726Z,50.34
2023-11-25T15:22:51.401Z,50.27
2023-11-25T15:25:18.085Z,50.15
2023-11-25T15:27:44.732Z,50.32
2023-11-25T15:30:11.406Z,50.16
2023-11-25T15:32:38.134Z,50.00
2023-11-25T15:35:04.888Z,50.13
2023-11-25T15:37:31.620Z,50.29
2023-11-25T15:39:58.302Z,50.52
2023-11-25T15:42:25.185Z,50.76
2023-11-25T15:44:51.845Z,51.00
2023-11-25T15:47:18.495Z,51.08
2023-11-25T15:49:45.170Z,51.07
2023-11-25T15:52:11.864Z,51.90
2023-11-25T15:54:38.542Z,52.16
2023-11-25T15:57:05.196Z,52.24
2023-11-25T15:59:32.064Z,52.38
2023-11-25T16:01:58.989Z,52.33
2023-11-25T16:04:25.904Z,53.05
2023-11-25T16:06:54.732Z,52.23
2023-11-25T16:09:21.570Z,52.06
2023-11-25T16:11:48.231Z,52.24
2023-11-25T16:14:14.923Z,52.45
2023-11-25T16:16:41.707Z,52.90
2023-11-25T16:19:08.406Z,52.60
2023-11-25T16:21:35.058Z,52.42
2023-11-25T16:24:01.945Z,52.37
2023-11-25T16:26:28.596Z,52.30
2023-11-25T16:28:55.323Z,52.00
2023-11-25T16:31:22.039Z,51.80
2023-11-25T16:33:48.705Z,51.85
2023-11-25T16:36:15.370Z,51.90
2023-11-25T16:38:42.035Z,51.78
2023-11-25T16:41:08.823Z,51.71
2023-11-25T16:43:36.930Z,51.40
2023-11-25T16:46:03.896Z,51.97
2023-11-25T16:48:39.310Z,52.47
2023-11-25T16:51:15.550Z,52.03
2023-11-25T16:53:42.235Z,51.95
2023-11-25T16:56:09.009Z,51.82
2023-11-25T16:58:35.695Z,51.73
2023-11-25T17:01:02.441Z,51.59
2023-11-25T17:03:29.433Z,51.57
2023-11-25T17:05:56.273Z,51.21
2023-11-25T17:08:23.149Z,51.36
2023-11-25T17:10:49.816Z,51.37
2023-11-25T17:13:16.483Z,51.18
2023-11-25T17:15:43.295Z,51.17
2023-11-25T17:18:11.630Z,51.53
2023-11-25T17:20:38.307Z,51.27
2023-11-25T17:23:04.978Z,51.02
2023-11-25T17:25:32.320Z,50.85
2023-11-25T17:27:59.014Z,51.20
2023-11-25T17:30:26.200Z,51.36
2023-11-25T17:32:53.074Z,51.30
2023-11-25T17:35:19.850Z,51.36
2023-11-25T17:37:46.538Z,49.76
2023-11-25T17:40:13.237Z,50.26
2023-11-25T17:42:40.124Z,51.01
2023-11-25T17:45:06.877Z,51.06
2023-11-25T17:47:33.554Z,51.35
2023-11-25T17:50:00.402Z,51.12
2023-11-25T17:52:27.315Z,50.97
2023-11-25T17:54:53.972Z,50.79
2023-11-25T17:57:20.750Z,50.95
2023-11-25T17:59:47.565Z,50.64
2023-11-25T18:02:14.675Z,51.01
2023-11-25T18:04:41.385Z,50.84
2023-11-25T18:07:08.372Z,50.83
2023-11-25T18:09:35.366Z,50.89
2023-11-25T18:12:02.059Z,50.08
2023-11-25T18:14:28.813Z,50.34
2023-11-25T18:16:55.841Z,50.37
2023-11-25T18:19:22.564Z,50.61
2023-11-25T18:21:49.386Z,50.59
2023-11-25T18:24:16.048Z,50.71
2023-11-25T18:26:43.114Z,50.73
2023-11-25T18:29:09.907Z,50.50
2023-11-25T18:31:36.830Z,50.44
2023-11-25T18:34:03.730Z,50.37
2023-11-25T18:36:30.430Z,50.43
2023-11-25T18:38:57.161Z,50.42
2023-11-25T18:41:23.816Z,50.30
2023-11-25T18:43:50.551Z,50.40
2023-11-25T18:46:17.280Z,50.62
2023-11-25T18:48:43.940Z,50.27
2023-11-25T18:51:10.586Z,49.80
2023-11-25T18:53:37.246Z,49.34
2023-11-25T18:56:03.977Z,48.76
2023-11-25T18:58:30.637Z,48.71
2023-11-25T19:01:18.647Z,48.82
2023-11-25T19:03:45.389Z,48.91
2023-11-25T19:06:12.296Z,49.11
2023-11-25T19:08:38.981Z,48.34
2023-11-25T19:11:05.716Z,49.09
2023-11-25T19:13:32.428Z,48.18
2023-11-25T19:15:59.167Z,46.70
2023-11-25T19:18:26.076Z,48.43
2023-11-25T19:20:52.770Z,48.48
2023-11-25T19:23:19.518Z,48.75
2023-11-25T19:25:46.413Z,48.85
2023-11-25T19:28:13.293Z,48.74
2023-11-25T19:30:39.986Z,48.86
2023-11-25T19:33:06.737Z,48.79
2023-11-25T19:35:33.683Z,49.05
2023-11-25T19:38:00.501Z,48.78
2023-11-25T19:40:27.191Z,48.48
2023-11-25T19:42:54.055Z,48.57
2023-11-25T19:45:20.984Z,48.52
2023-11-25T19:47:47.957Z,48.28
2023-11-25T19:50:14.740Z,48.50
2023-11-25T19:52:41.456Z,48.20
2023-11-25T19:55:08.144Z,48.05
2023-11-25T19:57:35.034Z,48.01
2023-11-25T20:00:01.837Z,48.14
2023-11-25T20:02:28.833Z,47.64
2023-11-25T20:04:56.184Z,47.96
2023-11-25T20:07:23.551Z,47.93
2023-11-25T20:09:50.241Z,47.87
2023-11-25T20:12:16.956Z,47.95
2023-11-25T20:14:43.933Z,47.83
2023-11-25T20:17:10.642Z,47.61
2023-11-25T20:19:37.514Z,47.68
2023-11-25T20:22:04.363Z,47.53
2023-11-25T20:24:31.031Z,47.29
2023-11-25T20:26:57.738Z,47.22
2023-11-25T20:29:24.454Z,47.35
2023-11-25T20:31:51.147Z,47.29
2023-11-25T20:34:17.868Z,47.12
2023-11-25T20:36:45.190Z,47.03
2023-11-25T20:39:12.480Z,46.77
2023-11-25T20:41:39.161Z,46.87
2023-11-25T20:44:05.858Z,47.30
2023-11-25T20:46:32.593Z,47.53
2023-11-25T20:48:59.296Z,46.83
2023-11-25T20:51:26.007Z,46.51
2023-11-25T20:53:52.704Z,46.13
2023-11-25T20:56:19.507Z,46.50
2023-11-25T20:58:46.492Z,46.40
2023-11-25T21:01:13.191Z,46.53
2023-11-25T21:03:40.252Z,46.47
2023-11-25T21:06:07.070Z,46.35
2023-11-25T21:08:33.742Z,46.40
2023-11-25T21:11:00.665Z,46.48
2023-11-25T21:13:27.350Z,46.32
2023-11-25T21:15:54.121Z,46.41
2023-11-25T21:18:20.824Z,46.26
2023-11-25T21:20:47.495Z,46.67
2023-11-25T21:23:14.191Z,45.76
2023-11-25T21:25:40.884Z,46.18
2023-11-25T21:28:07.794Z,47.59
2023-11-25T21:30:34.467Z,46.25
2023-11-25T21:33:01.145Z,46.08
2023-11-25T21:35:27.881Z,45.75
2023-11-25T21:37:54.611Z,46.03
2023-11-25T21:40:23.798Z,45.68
2023-11-25T21:42:50.946Z,45.85
2023-11-25T21:45:17.678Z,45.78
2023-11-25T21:47:44.368Z,45.53
2023-11-25T21:50:11.155Z,45.77
2023-11-25T21:52:38.110Z,45.88
2023-11-25T21:55:04.822Z,45.83
2023-11-25T21:57:31.497Z,45.83
2023-11-25T21:59:58.179Z,45.94
2023-11-25T22:02:24.960Z,45.77
2023-11-25T22:04:52.025Z,45.84
2023-11-25T22:07:18.722Z,45.94
2023-11-25T22:09:45.404Z,45.67
2023-11-25T22:12:12.174Z,45.86
2023-11-25T22:14:38.933Z,45.77
2023-11-25T22:17:05.676Z,45.56
2023-11-25T22:19:32.419Z,45.51
2023-11-25T22:21:59.336Z,45.56
2023-11-25T22:24:26.071Z,45.55
2023-11-25T22:26:52.755Z,45.47
2023-11-25T22:29:19.451Z,45.46
2023-11-25T22:31:46.218Z,45.39
2023-11-25T22:34:13.168Z,45.67
2023-11-25T22:36:39.833Z,45.65
2023-11-25T22:39:06.501Z,45.46
2023-11-25T22:41:33.213Z,45.42
2023-11-25T22:43:59.929Z,45.37
2023-11-25T22:46:26.661Z,45.53
2023-11-25T22:48:53.409Z,45.55
2023-11-25T22:51:20.147Z,45.42
2023-11-25T22:53:46.837Z,45.39
2023-11-25T22:56:13.550Z,45.38
2023-11-25T22:58:40.294Z,45.35
2023-11-25T23:01:07.001Z,45.27
2023-11-25T23:03:33.880Z,45.34
2023-11-25T23:06:00.675Z,45.27
2023-11-25T23:08:27.362Z,45.25
2023-11-25T23:10:54.064Z,45.34
2023-11-25T23:13:20.764Z,45.23
2023-11-25T23:15:47.432Z,45.01
2023-11-25T23:18:14.125Z,45.01
2023-11-25T23:20:41.029Z,44.90
2023-11-25T23:23:07.929Z,44.79
2023-11-25T23:25:34.759Z,44.91
2023-11-25T23:28:01.512Z,45.03
2023-11-25T23:30:28.210Z,45.18
2023-11-25T23:32:55.012Z,45.14
2023-11-25T23:35:21.812Z,45.32
2023-11-25T23:37:48.786Z,45.22
2023-11-25T23:40:15.546Z,45.40
2023-11-25T23:42:42.215Z,45.33
2023-11-25T23:45:08.903Z,45.55
2023-11-25T23:47:35.582Z,45.37
2023-11-25T23:50:02.328Z,45.33
2023-11-25T23:52:29.038Z,45.39
2023-11-25T23:54:56.077Z,45.51
2023-11-25T23:57:22.764Z,45.53
2023-11-25T23:59:49.459Z,45.23
